Effingham, NH

1:41 PM EST on December 18, 2014 (GMT -0500)
HADS OSSIPEE RIVER AT EFFINGHAM FALLS NEAR ENHDES | Change Station
CLOSE
Current Station
Personal Weather Station
Location: Freedom, NH
Elevation: 439 ft
Nearby Weather Stations

Elev 439 ft 43.80 °N, 71.06 °W | Updated 1 hour ago

Scattered Clouds
Scattered Clouds
33.0 °F
Feels Like 33.0 °F
N
-
Wind Variable Wind from North

Today
High -- | Low -- °F
--% Chance of Precip.
Yesterday
High -- | Low -- °F
Precip. -- in
7:13 AM 4:08 PM
Waning Crescent, 13% visible
Pressure 29.70 in
Visibility 10.0 miles
Clouds Few 4800 ft
Scattered Clouds 6000 ft
Dew Point Not available.
Humidity Not available.
Rainfall -999.00 in
Snow Depth Not available.
UV 1 out of 12
Pollen .10 out of 12
Air Quality Not available.
Flu Activity Not available.
METAR KIZG 181754Z AUTO 29013G23KT 10SM FEW048 SCT060 03/M03 A2968 RMK AO2 SLP057 T00331033 10050 20006 57002

More Conditions Fewer Conditions

Pressure 29.70 in
Visibility 10.0 miles
Clouds Few 4800 ft
Scattered Clouds 6000 ft
Dew Point Not available.
Humidity Not available.
Rainfall -999.00 in
Snow Depth Not available.
UV 1 out of 12
Pollen .10 out of 12
Air Quality Not available.
Flu Activity Not available.
METAR KIZG 181754Z AUTO 29013G23KT 10SM FEW048 SCT060 03/M03 A2968 RMK AO2 SLP057 T00331033 10050 20006 57002

More Conditions Fewer Conditions

10-Day Weather Forecast

Almanac

Astronomy

Dec. 18, 2014 Rise Set
Actual Time
Civil Twilight
Nautical Twilight
Astronomical Twilight
Moon
Length of Visible Light
Length of Day
Tomorrow will be .
, % of the Moon is Illuminated

Today's Extremes

State Highs State Lows

Community

WunderPhotos

Upload Photos

1,778,974 photos uploaded!

WunderBlogs® & News

Nearby

Air Quality

  Air Quality AQ Index Pollutant
Not available.

Snow Depth

Station Depth Elevation

Earthquake Activity

City Distance Mag. Time & Date
Minimum magnitude displayed is 2.5.

Coastal Water Temperatures

Place Temperature

Nearby Weather Stations